PWSweather.com
Personal Weather Stations
Station Observations
IONTARIO88
Lincoln, ON L0R

Lincoln, ON L0R

Lat: 43.1763563, Lon: -79.4719525

Elevation: 297

Station Type: Davis Vantage Pro 2 Plus

http://www.beamsvillewx.ca

Latest ConditionsUpdated 2:00:01 PM EST Saturday, Jan 31, 2015
Currently Today's Max Today's Min Today's Average
Temperature 26.0°F-3.3°C 26.0°F-3.3°C 7.3°F-13.7°C 14.7°F-9.6°C
Dew Point 17.9°F-7.8°C 17.9°F-7.8°C 2.6°F-16.3°C 9.1°F-12.7°C
Winds 8.4 mph SW13.5 kmh SW 8.4 mph SW13.5 kmh SW - 3.1 mph 5.0 kmh
Wind Gusts 12.0 mph19.3 kmh 15.0 mph24.1 kmh - -
Humidity 71% 83% 71% 78%
Pressure 30.24 in1024.0 mb 30.40 in1029.5 mb 30.24 in1024.0 mb -
Hour Temp Dew Point Humidity Winds Wind Gusts Pressure Precip Precip Rate Daily Precip Total
02:00 PM 26.0°F-3.3°C 17.9°F-7.8°C 71% 8.4 mph SW13.5 kmh SW 12.0 mph19.3 kmh 30.24 in1024.0 mb 0.00 in0.0 mm 0.00 in/hr0.0 mm/hr 0.00 in0.0 mm
01:50 PM 25.5°F-3.6°C 17.7°F-7.9°C 72% 7.1 mph SW11.4 kmh SW 12.0 mph19.3 kmh 30.24 in1024.0 mb 0.00 in0.0 mm 0.00 in/hr0.0 mm/hr 0.00 in0.0 mm
01:40 PM 25.0°F-3.9°C 17.6°F-8.0°C 73% 1.8 mph SW2.9 kmh SW 6.0 mph9.7 kmh 30.25 in1024.4 mb 0.00 in0.0 mm 0.00 in/hr0.0 mm/hr 0.00 in0.0 mm
01:30 PM 24.7°F-4.1°C 17.3°F-8.2°C 73% 7.1 mph SSW11.4 kmh SSW 11.0 mph17.7 kmh 30.25 in1024.4 mb 0.00 in0.0 mm 0.00 in/hr0.0 mm/hr 0.00 in0.0 mm
01:20 PM 24.2°F-4.3°C 16.8°F-8.4°C 73% 7.4 mph SW11.9 kmh SW 15.0 mph24.1 kmh 30.26 in1024.7 mb 0.00 in0.0 mm 0.00 in/hr0.0 mm/hr 0.00 in0.0 mm
01:10 PM 23.8°F-4.6°C 16.4°F-8.7°C 73% 6.7 mph SW10.8 kmh SW 8.0 mph12.9 kmh 30.27 in1025.1 mb 0.00 in0.0 mm 0.00 in/hr0.0 mm/hr 0.00 in0.0 mm
01:00 PM 23.7°F-4.6°C 16.3°F-8.7°C 73% 7.5 mph S12.1 kmh S 10.0 mph16.1 kmh 30.27 in1025.1 mb 0.00 in0.0 mm 0.00 in/hr0.0 mm/hr 0.00 in0.0 mm
12:50 PM 23.6°F-4.7°C 16.2°F-8.8°C 73% 5.8 mph SW9.3 kmh SW 12.0 mph19.3 kmh 30.27 in1025.1 mb 0.00 in0.0 mm 0.00 in/hr0.0 mm/hr 0.00 in0.0 mm
12:40 PM 23.8°F-4.6°C 16.4°F-8.7°C 73% 6.1 mph SW9.8 kmh SW 11.0 mph17.7 kmh 30.28 in1025.4 mb 0.00 in0.0 mm 0.00 in/hr0.0 mm/hr 0.00 in0.0 mm
12:30 PM 23.5°F-4.7°C 16.4°F-8.7°C 74% 3.9 mph SW6.3 kmh SW 5.0 mph8.0 kmh 30.28 in1025.4 mb 0.00 in0.0 mm 0.00 in/hr0.0 mm/hr 0.00 in0.0 mm
12:20 PM 23.4°F-4.8°C 16.3°F-8.7°C 74% 5.1 mph SSW8.2 kmh SSW 10.0 mph16.1 kmh 30.29 in1025.7 mb 0.00 in0.0 mm 0.00 in/hr0.0 mm/hr 0.00 in0.0 mm
12:10 PM 23.8°F-4.6°C 16.4°F-8.7°C 73% 4.4 mph SW7.1 kmh SW 7.0 mph11.3 kmh 30.30 in1026.1 mb 0.00 in0.0 mm 0.00 in/hr0.0 mm/hr 0.00 in0.0 mm
12:00 PM 23.8°F-4.6°C 16.4°F-8.7°C 73% 5.2 mph SW8.4 kmh SW 6.0 mph9.7 kmh 30.30 in1026.1 mb 0.00 in0.0 mm 0.00 in/hr0.0 mm/hr 0.00 in0.0 mm
11:50 AM 23.8°F-4.6°C 16.7°F-8.5°C 74% 7.2 mph W11.6 kmh W 14.0 mph22.5 kmh 30.31 in1026.4 mb 0.00 in0.0 mm 0.00 in/hr0.0 mm/hr 0.00 in0.0 mm
11:40 AM 23.3°F-4.8°C 16.6°F-8.6°C 75% 8.0 mph SSW12.9 kmh SSW 14.0 mph22.5 kmh 30.31 in1026.4 mb 0.00 in0.0 mm 0.00 in/hr0.0 mm/hr 0.00 in0.0 mm
11:30 AM 22.8°F-5.1°C 16.4°F-8.7°C 76% 3.9 mph SW6.3 kmh SW 5.0 mph8.0 kmh 30.31 in1026.4 mb 0.00 in0.0 mm 0.00 in/hr0.0 mm/hr 0.00 in0.0 mm
11:20 AM 22.2°F-5.4°C 16.1°F-8.8°C 77% 4.4 mph SSW7.1 kmh SSW 9.0 mph14.5 kmh 30.32 in1026.8 mb 0.00 in0.0 mm 0.00 in/hr0.0 mm/hr 0.00 in0.0 mm
11:10 AM 21.2°F-6.0°C 15.1°F-9.4°C 77% 6.4 mph SW10.3 kmh SW 10.0 mph16.1 kmh 30.32 in1026.8 mb 0.00 in0.0 mm 0.00 in/hr0.0 mm/hr 0.00 in0.0 mm
11:00 AM 20.8°F-6.2°C 14.8°F-9.6°C 77% 5.5 mph S8.9 kmh S 10.0 mph16.1 kmh 30.32 in1026.8 mb 0.00 in0.0 mm 0.00 in/hr0.0 mm/hr 0.00 in0.0 mm
10:50 AM 19.9°F-6.7°C 14.5°F-9.7°C 79% 2.7 mph WSW4.3 kmh WSW 6.0 mph9.7 kmh 30.34 in1027.4 mb 0.00 in0.0 mm 0.00 in/hr0.0 mm/hr 0.00 in0.0 mm
10:40 AM 19.2°F-7.1°C 13.8°F-10.1°C 79% 2.2 mph SW3.5 kmh SW 6.0 mph9.7 kmh 30.34 in1027.4 mb 0.00 in0.0 mm 0.00 in/hr0.0 mm/hr 0.00 in0.0 mm
10:30 AM 18.7°F-7.4°C 13.5°F-10.3°C 80% 4.5 mph WSW7.2 kmh WSW 7.0 mph11.3 kmh 30.34 in1027.4 mb 0.00 in0.0 mm 0.00 in/hr0.0 mm/hr 0.00 in0.0 mm
10:20 AM 18.1°F-7.7°C 12.7°F-10.7°C 79% 3.7 mph SW6.0 kmh SW 6.0 mph9.7 kmh 30.34 in1027.4 mb 0.00 in0.0 mm 0.00 in/hr0.0 mm/hr 0.00 in0.0 mm
10:10 AM 18.0°F-7.8°C 12.3°F-10.9°C 78% 4.4 mph SW7.1 kmh SW 9.0 mph14.5 kmh 30.34 in1027.4 mb 0.00 in0.0 mm 0.00 in/hr0.0 mm/hr 0.00 in0.0 mm
10:00 AM 17.9°F-7.8°C 11.9°F-11.2°C 77% 4.9 mph SW7.9 kmh SW 8.0 mph12.9 kmh 30.34 in1027.4 mb 0.00 in0.0 mm 0.00 in/hr0.0 mm/hr 0.00 in0.0 mm
09:50 AM 18.1°F-7.7°C 11.5°F-11.4°C 75% 3.9 mph SW6.3 kmh SW 5.0 mph8.0 kmh 30.34 in1027.4 mb 0.00 in0.0 mm 0.00 in/hr0.0 mm/hr 0.00 in0.0 mm
09:40 AM 17.9°F-7.8°C 11.0°F-11.7°C 74% 3.2 mph SW5.1 kmh SW 6.0 mph9.7 kmh 30.34 in1027.4 mb 0.00 in0.0 mm 0.00 in/hr0.0 mm/hr 0.00 in0.0 mm
09:30 AM 17.2°F-8.2°C 10.3°F-12.1°C 74% 4.0 mph SW6.4 kmh SW 7.0 mph11.3 kmh 30.34 in1027.4 mb 0.00 in0.0 mm 0.00 in/hr0.0 mm/hr 0.00 in0.0 mm
09:20 AM 17.1°F-8.3°C 9.9°F-12.3°C 73% 4.1 mph SW6.6 kmh SW 7.0 mph11.3 kmh 30.35 in1027.8 mb 0.00 in0.0 mm 0.00 in/hr0.0 mm/hr 0.00 in0.0 mm
09:10 AM 16.8°F-8.4°C 9.0°F-12.8°C 71% 3.4 mph SW5.5 kmh SW 7.0 mph11.3 kmh 30.35 in1027.8 mb 0.00 in0.0 mm 0.00 in/hr0.0 mm/hr 0.00 in0.0 mm
09:00 AM 16.3°F-8.7°C 9.1°F-12.7°C 73% 2.0 mph WSW3.2 kmh WSW 2.0 mph3.2 kmh 30.35 in1027.8 mb 0.00 in0.0 mm 0.00 in/hr0.0 mm/hr 0.00 in0.0 mm
08:50 AM 15.7°F-9.1°C 8.3°F-13.2°C 72% 1.3 mph WSW2.1 kmh WSW 3.0 mph4.8 kmh 30.35 in1027.8 mb 0.00 in0.0 mm 0.00 in/hr0.0 mm/hr 0.00 in0.0 mm
08:40 AM 15.3°F-9.3°C 8.5°F-13.1°C 74% 3.6 mph WSW5.8 kmh WSW 4.0 mph6.4 kmh 30.35 in1027.8 mb 0.00 in0.0 mm 0.00 in/hr0.0 mm/hr 0.00 in0.0 mm
08:30 AM 14.9°F-9.5°C 8.7°F-12.9°C 76% 2.4 mph WSW3.9 kmh WSW 5.0 mph8.0 kmh 30.35 in1027.8 mb 0.00 in0.0 mm 0.00 in/hr0.0 mm/hr 0.00 in0.0 mm
08:20 AM 14.2°F-9.9°C 8.4°F-13.1°C 77% 1.4 mph WSW2.3 kmh WSW 5.0 mph8.0 kmh 30.35 in1027.8 mb 0.00 in0.0 mm 0.00 in/hr0.0 mm/hr 0.00 in0.0 mm
08:10 AM 13.8°F-10.1°C 8.0°F-13.3°C 77% 4.0 mph WSW6.4 kmh WSW 5.0 mph8.0 kmh 30.35 in1027.8 mb 0.00 in0.0 mm 0.00 in/hr0.0 mm/hr 0.00 in0.0 mm
08:00 AM 13.7°F-10.2°C 7.8°F-13.4°C 77% 2.4 mph WSW3.9 kmh WSW 4.0 mph6.4 kmh 30.35 in1027.8 mb 0.00 in0.0 mm 0.00 in/hr0.0 mm/hr 0.00 in0.0 mm
07:50 AM 13.6°F-10.2°C 8.0°F-13.3°C 78% 1.4 mph WSW2.3 kmh WSW 3.0 mph4.8 kmh 30.35 in1027.8 mb 0.00 in0.0 mm 0.00 in/hr0.0 mm/hr 0.00 in0.0 mm
07:40 AM 13.7°F-10.2°C 8.1°F-13.3°C 78% 2.6 mph WSW4.2 kmh WSW 8.0 mph12.9 kmh 30.36 in1028.1 mb 0.00 in0.0 mm 0.00 in/hr0.0 mm/hr 0.00 in0.0 mm
07:30 AM 13.6°F-10.2°C 8.3°F-13.2°C 79% 0.5 mph SW0.8 kmh SW 2.0 mph3.2 kmh 30.36 in1028.1 mb 0.00 in0.0 mm 0.00 in/hr0.0 mm/hr 0.00 in0.0 mm
07:20 AM 13.4°F-10.3°C 8.1°F-13.3°C 79% 0.1 mph SW0.2 kmh SW -- 30.35 in1027.8 mb 0.00 in0.0 mm 0.00 in/hr0.0 mm/hr 0.00 in0.0 mm
07:10 AM 13.4°F-10.3°C 8.1°F-13.3°C 79% 1.9 mph SW3.1 kmh SW 5.0 mph8.0 kmh 30.35 in1027.8 mb 0.00 in0.0 mm 0.00 in/hr0.0 mm/hr 0.00 in0.0 mm
07:00 AM 13.5°F-10.3°C 8.2°F-13.2°C 79% 0.8 mph SW1.3 kmh SW 2.0 mph3.2 kmh 30.35 in1027.8 mb 0.00 in0.0 mm 0.00 in/hr0.0 mm/hr 0.00 in0.0 mm
06:50 AM 13.6°F-10.2°C 8.6°F-13.0°C 80% 1.4 mph SW2.3 kmh SW 4.0 mph6.4 kmh 30.35 in1027.8 mb 0.00 in0.0 mm 0.00 in/hr0.0 mm/hr 0.00 in0.0 mm
06:40 AM 13.6°F-10.2°C 8.6°F-13.0°C 80% 2.8 mph SW4.5 kmh SW 4.0 mph6.4 kmh 30.35 in1027.8 mb 0.00 in0.0 mm 0.00 in/hr0.0 mm/hr 0.00 in0.0 mm
06:30 AM 13.5°F-10.3°C 8.5°F-13.1°C 80% 0.4 mph SW0.6 kmh SW 1.0 mph1.6 kmh 30.35 in1027.8 mb 0.00 in0.0 mm 0.00 in/hr0.0 mm/hr 0.00 in0.0 mm
06:20 AM 13.2°F-10.4°C 8.7°F-12.9°C 82% Calm Calm -- 30.35 in1027.8 mb 0.00 in0.0 mm 0.00 in/hr0.0 mm/hr 0.00 in0.0 mm
06:10 AM 12.9°F-10.6°C 8.2°F-13.2°C 81% 1.6 mph SW2.6 kmh SW 3.0 mph4.8 kmh 30.35 in1027.8 mb 0.00 in0.0 mm 0.00 in/hr0.0 mm/hr 0.00 in0.0 mm
06:00 AM 12.6°F-10.8°C 7.9°F-13.4°C 81% 1.3 mph SW2.1 kmh SW 2.0 mph3.2 kmh 30.35 in1027.8 mb 0.00 in0.0 mm 0.00 in/hr0.0 mm/hr 0.00 in0.0 mm
05:50 AM 12.4°F-10.9°C 8.0°F-13.3°C 82% 2.8 mph SW4.5 kmh SW 4.0 mph6.4 kmh 30.35 in1027.8 mb 0.00 in0.0 mm 0.00 in/hr0.0 mm/hr 0.00 in0.0 mm
05:40 AM 12.2°F-11.0°C 7.8°F-13.4°C 82% 1.7 mph SW2.7 kmh SW 3.0 mph4.8 kmh 30.35 in1027.8 mb 0.00 in0.0 mm 0.00 in/hr0.0 mm/hr 0.00 in0.0 mm
05:30 AM 12.0°F-11.1°C 7.5°F-13.6°C 82% 1.2 mph SW1.9 kmh SW 3.0 mph4.8 kmh 30.35 in1027.8 mb 0.00 in0.0 mm 0.00 in/hr0.0 mm/hr 0.00 in0.0 mm
05:20 AM 11.7°F-11.3°C 7.2°F-13.8°C 82% 1.3 mph SW2.1 kmh SW 2.0 mph3.2 kmh 30.35 in1027.8 mb 0.00 in0.0 mm 0.00 in/hr0.0 mm/hr 0.00 in0.0 mm
05:10 AM 11.4°F-11.4°C 7.0°F-13.9°C 82% 2.0 mph SW3.2 kmh SW 3.0 mph4.8 kmh 30.36 in1028.1 mb 0.00 in0.0 mm 0.00 in/hr0.0 mm/hr 0.00 in0.0 mm
05:00 AM 11.1°F-11.6°C 6.7°F-14.1°C 82% 1.4 mph SW2.3 kmh SW 2.0 mph3.2 kmh 30.36 in1028.1 mb 0.00 in0.0 mm 0.00 in/hr0.0 mm/hr 0.00 in0.0 mm
04:50 AM 11.1°F-11.6°C 6.4°F-14.2°C 81% 2.5 mph SW4.0 kmh SW 4.0 mph6.4 kmh 30.36 in1028.1 mb 0.00 in0.0 mm 0.00 in/hr0.0 mm/hr 0.00 in0.0 mm
04:40 AM 10.9°F-11.7°C 6.5°F-14.2°C 82% 1.5 mph SW2.4 kmh SW 3.0 mph4.8 kmh 30.37 in1028.4 mb 0.00 in0.0 mm 0.00 in/hr0.0 mm/hr 0.00 in0.0 mm
04:30 AM 10.4°F-12.0°C 6.0°F-14.4°C 82% 1.2 mph SW1.9 kmh SW 2.0 mph3.2 kmh 30.37 in1028.4 mb 0.00 in0.0 mm 0.00 in/hr0.0 mm/hr 0.00 in0.0 mm
04:20 AM 9.9°F-12.3°C 5.5°F-14.7°C 82% 0.6 mph SW1.0 kmh SW 2.0 mph3.2 kmh 30.36 in1028.1 mb 0.00 in0.0 mm 0.00 in/hr0.0 mm/hr 0.00 in0.0 mm
04:10 AM 9.6°F-12.4°C 5.2°F-14.9°C 82% 2.2 mph SW3.5 kmh SW 4.0 mph6.4 kmh 30.37 in1028.4 mb 0.00 in0.0 mm 0.00 in/hr0.0 mm/hr 0.00 in0.0 mm
04:00 AM 9.5°F-12.5°C 4.8°F-15.1°C 81% 4.1 mph SW6.6 kmh SW 5.0 mph8.0 kmh 30.37 in1028.4 mb 0.00 in0.0 mm 0.00 in/hr0.0 mm/hr 0.00 in0.0 mm
03:50 AM 9.5°F-12.5°C 4.8°F-15.1°C 81% 2.2 mph WSW3.5 kmh WSW 4.0 mph6.4 kmh 30.37 in1028.4 mb 0.00 in0.0 mm 0.00 in/hr0.0 mm/hr 0.00 in0.0 mm
03:40 AM 9.6°F-12.4°C 4.7°F-15.2°C 80% 2.0 mph WSW3.2 kmh WSW 4.0 mph6.4 kmh 30.37 in1028.4 mb 0.00 in0.0 mm 0.00 in/hr0.0 mm/hr 0.00 in0.0 mm
03:30 AM 10.1°F-12.2°C 5.2°F-14.9°C 80% 3.8 mph WSW6.1 kmh WSW 6.0 mph9.7 kmh 30.37 in1028.4 mb 0.00 in0.0 mm 0.00 in/hr0.0 mm/hr 0.00 in0.0 mm
03:20 AM 10.5°F-11.9°C 5.8°F-14.6°C 81% 2.4 mph WSW3.9 kmh WSW 5.0 mph8.0 kmh 30.38 in1028.8 mb 0.00 in0.0 mm 0.00 in/hr0.0 mm/hr 0.00 in0.0 mm
03:10 AM 10.1°F-12.2°C 5.7°F-14.6°C 82% 1.1 mph WSW1.8 kmh WSW 3.0 mph4.8 kmh 30.38 in1028.8 mb 0.00 in0.0 mm 0.00 in/hr0.0 mm/hr 0.00 in0.0 mm
03:00 AM 9.5°F-12.5°C 5.1°F-14.9°C 82% 0.8 mph WSW1.3 kmh WSW 3.0 mph4.8 kmh 30.38 in1028.8 mb 0.00 in0.0 mm 0.00 in/hr0.0 mm/hr 0.00 in0.0 mm
02:50 AM 9.0°F-12.8°C 4.9°F-15.1°C 83% 1.4 mph WSW2.3 kmh WSW 3.0 mph4.8 kmh 30.38 in1028.8 mb 0.00 in0.0 mm 0.00 in/hr0.0 mm/hr 0.00 in0.0 mm
02:40 AM 8.2°F-13.2°C 4.1°F-15.5°C 83% 0.6 mph WSW1.0 kmh WSW 3.0 mph4.8 kmh 30.39 in1029.1 mb 0.00 in0.0 mm 0.00 in/hr0.0 mm/hr 0.00 in0.0 mm
02:30 AM 7.5°F-13.6°C 2.9°F-16.2°C 81% 2.4 mph WSW3.9 kmh WSW 4.0 mph6.4 kmh 30.39 in1029.1 mb 0.00 in0.0 mm 0.00 in/hr0.0 mm/hr 0.00 in0.0 mm
02:20 AM 7.6°F-13.6°C 3.0°F-16.1°C 81% 2.4 mph WSW3.9 kmh WSW 3.0 mph4.8 kmh 30.40 in1029.5 mb 0.00 in0.0 mm 0.00 in/hr0.0 mm/hr 0.00 in0.0 mm
02:10 AM 7.5°F-13.6°C 2.9°F-16.2°C 81% 2.1 mph WSW3.4 kmh WSW 4.0 mph6.4 kmh 30.40 in1029.5 mb 0.00 in0.0 mm 0.00 in/hr0.0 mm/hr 0.00 in0.0 mm
02:00 AM 7.3°F-13.7°C 3.0°F-16.1°C 82% 2.7 mph WSW4.3 kmh WSW 5.0 mph8.0 kmh 30.40 in1029.5 mb 0.00 in0.0 mm 0.00 in/hr0.0 mm/hr 0.00 in0.0 mm
01:50 AM 7.3°F-13.7°C 2.6°F-16.3°C 81% 3.0 mph WSW4.8 kmh WSW 3.0 mph4.8 kmh 30.40 in1029.5 mb 0.00 in0.0 mm 0.00 in/hr0.0 mm/hr 0.00 in0.0 mm
01:40 AM 7.4°F-13.7°C 2.8°F-16.2°C 81% 3.3 mph WSW5.3 kmh WSW 5.0 mph8.0 kmh 30.39 in1029.1 mb 0.00 in0.0 mm 0.00 in/hr0.0 mm/hr 0.00 in0.0 mm
01:30 AM 7.6°F-13.6°C 3.0°F-16.1°C 81% 1.6 mph WSW2.6 kmh WSW 2.0 mph3.2 kmh 30.39 in1029.1 mb 0.00 in0.0 mm 0.00 in/hr0.0 mm/hr 0.00 in0.0 mm
01:20 AM 7.9°F-13.4°C 3.3°F-15.9°C 81% 2.9 mph WSW4.7 kmh WSW 5.0 mph8.0 kmh 30.40 in1029.5 mb 0.00 in0.0 mm 0.00 in/hr0.0 mm/hr 0.00 in0.0 mm
01:10 AM 8.1°F-13.3°C 3.5°F-15.8°C 81% 3.3 mph WSW5.3 kmh WSW 5.0 mph8.0 kmh 30.40 in1029.5 mb 0.00 in0.0 mm 0.00 in/hr0.0 mm/hr 0.00 in0.0 mm
01:00 AM 8.3°F-13.2°C 3.7°F-15.7°C 81% 1.8 mph WSW2.9 kmh WSW 5.0 mph8.0 kmh 30.40 in1029.5 mb 0.00 in0.0 mm 0.00 in/hr0.0 mm/hr 0.00 in0.0 mm
12:50 AM 8.2°F-13.2°C 3.3°F-15.9°C 80% 2.9 mph WSW4.7 kmh WSW 4.0 mph6.4 kmh 30.40 in1029.5 mb 0.00 in0.0 mm 0.00 in/hr0.0 mm/hr 0.00 in0.0 mm
12:40 AM 8.4°F-13.1°C 3.5°F-15.8°C 80% 2.7 mph WSW4.3 kmh WSW 3.0 mph4.8 kmh 30.40 in1029.5 mb 0.00 in0.0 mm 0.00 in/hr0.0 mm/hr 0.00 in0.0 mm
12:30 AM 8.4°F-13.1°C 3.2°F-16.0°C 79% 3.4 mph WSW5.5 kmh WSW 5.0 mph8.0 kmh 30.40 in1029.5 mb 0.00 in0.0 mm 0.00 in/hr0.0 mm/hr 0.00 in0.0 mm
12:20 AM 8.6°F-13.0°C 3.2°F-16.0°C 78% 2.0 mph WSW3.2 kmh WSW 4.0 mph6.4 kmh 30.40 in1029.5 mb 0.00 in0.0 mm 0.00 in/hr0.0 mm/hr 0.00 in0.0 mm
12:10 AM 8.7°F-12.9°C 3.5°F-15.8°C 79% 3.1 mph WSW5.0 kmh WSW 4.0 mph6.4 kmh 30.40 in1029.5 mb 0.00 in0.0 mm 0.00 in/hr0.0 mm/hr 0.00 in0.0 mm
12:00 AM 8.5°F-13.1°C 3.3°F-15.9°C 79% 4.3 mph WSW6.9 kmh WSW 5.0 mph8.0 kmh 30.40 in1029.5 mb 0.00 in0.0 mm 0.00 in/hr0.0 mm/hr 0.00 in0.0 mm